createdAt,value
2023-01-17T00:01:42.940Z,4.67
2023-01-17T00:04:30.013Z,5.00
2023-01-17T00:07:19.360Z,5.40
2023-01-17T00:09:56.872Z,5.37
2023-01-17T00:12:27.570Z,5.80
2023-01-17T00:14:55.532Z,6.63
2023-01-17T00:17:23.761Z,5.13
2023-01-17T00:20:09.114Z,5.20
2023-01-17T00:22:57.013Z,5.23
2023-01-17T00:25:54.258Z,5.73
2023-01-17T00:28:20.769Z,5.00
2023-01-17T00:30:47.341Z,4.63
2023-01-17T00:33:14.008Z,5.30
2023-01-17T00:35:43.327Z,4.97
2023-01-17T00:38:18.216Z,4.63
2023-01-17T00:40:45.721Z,4.13
2023-01-17T00:43:32.817Z,3.83
2023-01-17T00:46:17.982Z,3.80
2023-01-17T00:49:03.655Z,3.80
2023-01-17T00:51:49.816Z,3.90
2023-01-17T00:54:36.443Z,3.43
2023-01-17T00:57:22.321Z,4.13
2023-01-17T01:00:07.694Z,4.00
2023-01-17T01:02:53.772Z,3.73
2023-01-17T01:05:42.026Z,4.20
2023-01-17T01:08:39.705Z,4.23
2023-01-17T01:11:27.093Z,3.97
2023-01-17T01:14:12.281Z,4.40
2023-01-17T01:16:57.648Z,4.77
2023-01-17T01:19:43.526Z,5.03
2023-01-17T01:22:28.794Z,4.50
2023-01-17T01:25:14.013Z,4.77
2023-01-17T01:27:59.599Z,4.47
2023-01-17T01:30:44.675Z,3.90
2023-01-17T01:33:19.071Z,3.93
2023-01-17T01:35:49.479Z,3.60
2023-01-17T01:38:17.124Z,3.80
2023-01-17T01:40:45.490Z,4.40
2023-01-17T01:43:14.731Z,3.80
2023-01-17T01:45:46.159Z,4.00
2023-01-17T01:48:24.083Z,3.30
2023-01-17T01:50:51.252Z,3.53
2023-01-17T01:53:19.841Z,3.50
2023-01-17T01:55:49.430Z,3.63
2023-01-17T01:58:19.976Z,3.30
2023-01-17T02:00:46.568Z,2.77
2023-01-17T02:03:26.914Z,2.70
2023-01-17T02:05:53.619Z,2.90
2023-01-17T02:08:21.988Z,2.83
2023-01-17T02:10:48.917Z,2.63
2023-01-17T02:13:17.372Z,3.00
2023-01-17T02:16:09.607Z,2.50
2023-01-17T02:18:51.368Z,2.63
2023-01-17T02:21:38.689Z,3.20
2023-01-17T02:24:27.790Z,2.37
2023-01-17T02:27:13.079Z,2.80
2023-01-17T02:29:55.047Z,3.00
2023-01-17T02:32:43.421Z,3.33
2023-01-17T02:35:16.591Z,3.67
2023-01-17T02:38:01.228Z,3.17
2023-01-17T02:40:32.460Z,3.60
2023-01-17T02:43:05.559Z,3.40
2023-01-17T02:45:32.372Z,2.70
2023-01-17T02:47:59.104Z,3.17
2023-01-17T02:50:31.880Z,2.67
2023-01-17T02:53:06.011Z,2.60
2023-01-17T02:55:36.746Z,2.43
2023-01-17T02:58:06.255Z,2.00
2023-01-17T03:00:58.965Z,1.57
2023-01-17T03:03:44.352Z,1.63
2023-01-17T03:06:39.147Z,1.07
2023-01-17T03:09:06.653Z,0.90
2023-01-17T03:11:33.289Z,1.23
2023-01-17T03:13:59.897Z,1.17
2023-01-17T03:16:28.876Z,1.10
2023-01-17T03:18:55.544Z,1.30
2023-01-17T03:21:23.212Z,1.20
2023-01-17T03:23:49.765Z,1.20
2023-01-17T03:26:16.451Z,1.03
2023-01-17T03:28:43.491Z,1.50
2023-01-17T03:31:13.164Z,1.10
2023-01-17T03:33:39.882Z,1.40
2023-01-17T03:36:06.635Z,1.70
2023-01-17T03:38:33.303Z,1.60
2023-01-17T03:41:00.505Z,1.67
2023-01-17T03:43:27.121Z,1.70
2023-01-17T03:46:02.499Z,2.37
2023-01-17T03:48:29.032Z,2.80
2023-01-17T03:50:55.909Z,3.03
2023-01-17T03:53:22.508Z,4.03
2023-01-17T03:55:49.436Z,3.90
2023-01-17T03:58:16.538Z,3.80
2023-01-17T04:00:45.559Z,3.80
2023-01-17T04:03:12.331Z,3.77
2023-01-17T04:05:38.869Z,4.13
2023-01-17T04:08:07.234Z,3.53
2023-01-17T04:10:34.124Z,4.40
2023-01-17T04:13:00.733Z,4.50
2023-01-17T04:15:27.481Z,4.40
2023-01-17T04:17:54.428Z,4.43
2023-01-17T04:20:33.539Z,5.43
2023-01-17T04:23:00.649Z,6.03
2023-01-17T04:25:29.934Z,5.80
2023-01-17T04:28:00.817Z,6.93
2023-01-17T04:30:30.276Z,6.43
2023-01-17T04:32:57.883Z,6.03
2023-01-17T04:35:25.040Z,6.20
2023-01-17T04:37:52.319Z,5.83
2023-01-17T04:40:19.207Z,4.53
2023-01-17T04:42:46.369Z,4.83
2023-01-17T04:45:13.732Z,4.47
2023-01-17T04:47:40.975Z,4.43
2023-01-17T04:50:08.579Z,4.10
2023-01-17T04:52:35.406Z,3.97
2023-01-17T04:55:02.059Z,3.53
2023-01-17T04:57:28.998Z,3.80
2023-01-17T04:59:55.788Z,3.50
2023-01-17T05:02:22.423Z,3.40
2023-01-17T05:04:49.089Z,3.50
2023-01-17T05:07:15.806Z,3.00
2023-01-17T05:09:43.953Z,3.20
2023-01-17T05:12:10.843Z,3.60
2023-01-17T05:14:37.518Z,3.90
2023-01-17T05:17:04.266Z,3.83
2023-01-17T05:19:30.967Z,4.83
2023-01-17T05:22:04.347Z,4.07
2023-01-17T05:24:31.759Z,4.07
2023-01-17T05:27:03.300Z,4.63
2023-01-17T05:29:30.902Z,4.90
2023-01-17T05:31:57.877Z,4.60
2023-01-17T05:34:24.800Z,5.33
2023-01-17T05:36:51.475Z,5.67
2023-01-17T05:39:18.463Z,6.40
2023-01-17T05:41:45.480Z,6.33
2023-01-17T05:44:17.968Z,6.80
2023-01-17T05:46:44.639Z,6.77
2023-01-17T05:49:11.350Z,6.70
2023-01-17T05:51:39.665Z,7.27
2023-01-17T05:54:06.783Z,7.33
2023-01-17T05:56:34.036Z,7.60
2023-01-17T05:59:00.708Z,7.13
2023-01-17T06:01:27.769Z,8.10
2023-01-17T06:03:54.311Z,7.43
2023-01-17T06:06:21.051Z,7.77
2023-01-17T06:08:47.793Z,7.40
2023-01-17T06:11:15.604Z,6.93
2023-01-17T06:13:42.732Z,5.93
2023-01-17T06:16:09.470Z,6.50
2023-01-17T06:18:36.409Z,6.17
2023-01-17T06:21:03.145Z,6.27
2023-01-17T06:23:29.974Z,6.57
2023-01-17T06:25:56.985Z,6.50
2023-01-17T06:28:24.047Z,7.13
2023-01-17T06:30:50.936Z,6.93
2023-01-17T06:33:17.787Z,7.33
2023-01-17T06:35:49.501Z,7.10
2023-01-17T06:38:16.437Z,6.53
2023-01-17T06:40:43.078Z,6.43
2023-01-17T06:43:10.015Z,7.03
2023-01-17T06:45:36.750Z,5.90
2023-01-17T06:48:05.224Z,5.77
2023-01-17T06:50:33.066Z,5.63
2023-01-17T06:53:05.161Z,6.20
2023-01-17T06:55:33.967Z,5.57
2023-01-17T06:58:03.009Z,5.27
2023-01-17T07:00:30.886Z,5.77
2023-01-17T07:02:57.961Z,6.23
2023-01-17T07:05:24.859Z,6.40
2023-01-17T07:07:51.727Z,6.57
2023-01-17T07:10:18.381Z,6.50
2023-01-17T07:12:45.414Z,6.40
2023-01-17T07:15:12.286Z,7.17
2023-01-17T07:17:39.032Z,7.30
2023-01-17T07:20:06.586Z,7.60
2023-01-17T07:22:33.255Z,8.07
2023-01-17T07:25:00.341Z,7.93
2023-01-17T07:27:30.235Z,8.07
2023-01-17T07:29:57.601Z,8.00
2023-01-17T07:32:26.015Z,8.60
2023-01-17T07:34:52.940Z,9.20
2023-01-17T07:37:20.098Z,8.60
2023-01-17T07:39:47.022Z,8.83
2023-01-17T07:42:13.691Z,9.27
2023-01-17T07:44:43.942Z,9.87
2023-01-17T07:47:11.318Z,9.73
2023-01-17T07:49:38.459Z,10.37
2023-01-17T07:52:08.470Z,9.73
2023-01-17T07:54:35.949Z,9.50
2023-01-17T07:57:02.980Z,9.40
2023-01-17T07:59:29.686Z,9.17
2023-01-17T08:01:56.445Z,9.63
2023-01-17T08:04:26.233Z,9.80
2023-01-17T08:06:55.094Z,9.07
2023-01-17T08:09:22.083Z,9.17
2023-01-17T08:11:50.122Z,9.47
2023-01-17T08:14:17.105Z,10.07
2023-01-17T08:16:43.989Z,9.50
2023-01-17T08:19:10.647Z,8.97
2023-01-17T08:21:37.552Z,8.60
2023-01-17T08:24:07.175Z,8.70
2023-01-17T08:26:34.028Z,9.10
2023-01-17T08:29:01.166Z,8.03
2023-01-17T08:31:30.501Z,8.30
2023-01-17T08:33:57.489Z,8.63
2023-01-17T08:36:25.995Z,7.90
2023-01-17T08:38:53.345Z,7.37
2023-01-17T08:41:23.754Z,8.07
2023-01-17T08:43:51.900Z,7.90
2023-01-17T08:46:18.817Z,8.47
2023-01-17T08:48:45.546Z,8.70
2023-01-17T08:51:12.540Z,9.73
2023-01-17T08:53:39.126Z,8.80
2023-01-17T08:56:06.108Z,8.80
2023-01-17T08:58:32.953Z,9.33
2023-01-17T09:01:01.807Z,10.07
2023-01-17T09:03:28.803Z,10.40
2023-01-17T09:06:08.797Z,10.67
2023-01-17T09:08:36.301Z,10.33
2023-01-17T09:11:07.090Z,10.93
2023-01-17T09:13:33.857Z,11.03
2023-01-17T09:16:00.731Z,10.93
2023-01-17T09:18:28.340Z,11.80
2023-01-17T09:20:55.501Z,11.57
2023-01-17T09:23:22.828Z,11.40
2023-01-17T09:25:59.530Z,11.13
2023-01-17T09:28:27.169Z,11.50
2023-01-17T09:30:54.662Z,10.87
2023-01-17T09:33:23.157Z,11.00
2023-01-17T09:35:50.255Z,11.77
2023-01-17T09:38:17.147Z,12.90
2023-01-17T09:40:46.456Z,12.47
2023-01-17T09:43:42.027Z,12.03
2023-01-17T09:46:22.408Z,11.43
2023-01-17T09:48:52.419Z,10.73
2023-01-17T09:51:22.337Z,11.90
2023-01-17T09:53:49.030Z,11.30
2023-01-17T09:56:23.189Z,11.50
2023-01-17T09:59:33.013Z,11.57
2023-01-17T10:02:12.926Z,11.60
2023-01-17T10:05:12.307Z,11.87
2023-01-17T10:07:45.762Z,11.70
2023-01-17T10:10:27.495Z,12.10
2023-01-17T10:13:15.242Z,9.63
2023-01-17T10:15:48.107Z,9.00
2023-01-17T10:18:51.251Z,9.07
2023-01-17T10:21:30.130Z,10.27
2023-01-17T10:24:19.782Z,9.17
2023-01-17T10:26:50.173Z,8.40
2023-01-17T10:29:20.265Z,8.07
2023-01-17T10:31:55.380Z,8.67
2023-01-17T10:34:36.556Z,7.80
2023-01-17T10:37:19.990Z,7.83
2023-01-17T10:39:49.184Z,8.07
2023-01-17T10:42:54.220Z,8.27
2023-01-17T10:45:28.813Z,8.90
2023-01-17T10:48:13.450Z,9.10
2023-01-17T10:50:57.245Z,9.00
2023-01-17T10:53:27.113Z,8.73
2023-01-17T10:55:53.689Z,9.00
2023-01-17T10:58:20.379Z,8.47
2023-01-17T11:00:50.661Z,9.37
2023-01-17T11:03:21.138Z,8.97
2023-01-17T11:06:19.601Z,8.50
2023-01-17T11:09:01.199Z,8.67
2023-01-17T11:11:37.632Z,8.67
2023-01-17T11:14:25.903Z,8.10
2023-01-17T11:17:01.542Z,8.20
2023-01-17T11:19:35.495Z,8.50
2023-01-17T11:22:04.997Z,8.30
2023-01-17T11:24:47.678Z,8.37
2023-01-17T11:28:19.161Z,7.73
2023-01-17T11:31:07.697Z,7.37
2023-01-17T11:33:48.311Z,8.00
2023-01-17T11:36:27.413Z,7.00
2023-01-17T11:39:06.807Z,7.20
2023-01-17T11:41:39.538Z,6.73
2023-01-17T11:44:27.780Z,6.73
2023-01-17T11:47:17.154Z,6.77
2023-01-17T11:49:46.261Z,7.10
2023-01-17T11:52:24.507Z,7.20
2023-01-17T11:54:53.898Z,6.20
2023-01-17T11:57:24.429Z,7.07
2023-01-17T12:00:12.145Z,6.70
2023-01-17T12:03:16.788Z,5.80
2023-01-17T12:06:01.593Z,6.30
2023-01-17T12:08:47.269Z,6.33
2023-01-17T12:11:22.352Z,5.57
2023-01-17T12:14:19.904Z,5.47
2023-01-17T12:17:11.947Z,5.80
2023-01-17T12:20:12.771Z,5.80
2023-01-17T12:23:16.544Z,5.23
2023-01-17T12:25:59.477Z,4.90
2023-01-17T12:28:53.531Z,4.87
2023-01-17T12:31:33.410Z,6.70
2023-01-17T12:34:08.083Z,4.90
2023-01-17T12:36:39.239Z,4.97
2023-01-17T12:39:12.090Z,5.40
2023-01-17T12:41:51.145Z,5.57
2023-01-17T12:44:19.223Z,5.93
2023-01-17T12:47:00.868Z,5.13
2023-01-17T12:50:03.266Z,5.43
2023-01-17T12:52:48.395Z,4.73
2023-01-17T12:55:23.819Z,4.87
2023-01-17T12:58:01.582Z,5.53
2023-01-17T13:00:29.963Z,5.23
2023-01-17T13:03:07.651Z,5.27
2023-01-17T13:05:40.980Z,5.10
2023-01-17T13:08:13.741Z,4.10
2023-01-17T13:10:52.192Z,4.43
2023-01-17T13:13:27.824Z,3.67
2023-01-17T13:15:58.237Z,3.87
2023-01-17T13:18:26.516Z,4.17
2023-01-17T13:21:04.891Z,3.60
2023-01-17T13:23:47.074Z,3.63
2023-01-17T13:26:23.899Z,4.10
2023-01-17T13:29:02.747Z,4.10
2023-01-17T13:31:45.800Z,3.73
2023-01-17T13:34:27.235Z,3.77
2023-01-17T13:37:04.958Z,3.60
2023-01-17T13:39:34.695Z,3.80
2023-01-17T13:42:10.968Z,3.93
2023-01-17T13:44:38.006Z,4.00
2023-01-17T13:47:18.118Z,3.70
2023-01-17T13:49:49.582Z,3.77
2023-01-17T13:52:19.592Z,4.30
2023-01-17T13:54:51.578Z,3.83
2023-01-17T13:57:33.030Z,3.60
2023-01-17T14:00:35.850Z,3.97
2023-01-17T14:03:02.827Z,3.93
2023-01-17T14:05:38.714Z,3.87
2023-01-17T14:08:13.792Z,4.07
2023-01-17T14:10:42.170Z,4.00
2023-01-17T14:13:35.270Z,4.03
2023-01-17T14:16:04.018Z,3.37
2023-01-17T14:18:36.946Z,3.97
2023-01-17T14:21:12.574Z,3.60
2023-01-17T14:23:50.264Z,3.67
2023-01-17T14:26:27.587Z,4.27
2023-01-17T14:28:55.880Z,3.67
2023-01-17T14:31:23.578Z,4.27
2023-01-17T14:33:50.603Z,3.77
2023-01-17T14:36:32.748Z,3.43
2023-01-17T14:38:59.353Z,3.20
2023-01-17T14:41:27.819Z,3.10
2023-01-17T14:43:54.856Z,3.07
2023-01-17T14:46:25.787Z,3.13
2023-01-17T14:49:20.226Z,2.63
2023-01-17T14:52:04.005Z,3.70
2023-01-17T14:54:30.770Z,3.23
2023-01-17T14:57:27.948Z,3.17
2023-01-17T15:00:18.555Z,3.37
2023-01-17T15:02:45.852Z,3.30
2023-01-17T15:05:17.839Z,3.00
2023-01-17T15:07:46.151Z,2.90
2023-01-17T15:10:18.096Z,2.40
2023-01-17T15:12:47.060Z,2.57
2023-01-17T15:15:28.533Z,2.37
2023-01-17T15:18:13.554Z,2.70
2023-01-17T15:20:48.690Z,2.70
2023-01-17T15:23:18.319Z,3.30
2023-01-17T15:25:49.721Z,3.67
2023-01-17T15:28:16.756Z,2.80
2023-01-17T15:31:26.263Z,2.77
2023-01-17T15:33:55.877Z,2.80
2023-01-17T15:36:32.653Z,3.00
2023-01-17T15:39:05.479Z,3.00
2023-01-17T15:41:35.122Z,2.63
2023-01-17T15:44:02.460Z,2.97
2023-01-17T15:46:30.845Z,2.40
2023-01-17T15:49:17.620Z,2.87
2023-01-17T15:52:09.013Z,2.60
2023-01-17T15:54:40.646Z,2.93
2023-01-17T15:57:25.924Z,2.50
2023-01-17T15:59:52.446Z,2.80
2023-01-17T16:02:38.879Z,2.83
2023-01-17T16:05:24.082Z,3.17
2023-01-17T16:07:53.724Z,3.17
2023-01-17T16:10:25.345Z,3.20
2023-01-17T16:12:54.005Z,3.07
2023-01-17T16:15:20.760Z,3.07
2023-01-17T16:18:09.563Z,3.23
2023-01-17T16:20:43.477Z,2.97
2023-01-17T16:23:10.854Z,3.40
2023-01-17T16:25:38.389Z,3.27
2023-01-17T16:28:05.952Z,3.27
2023-01-17T16:30:33.071Z,3.27
2023-01-17T16:32:59.953Z,3.27
2023-01-17T16:35:28.833Z,2.97
2023-01-17T16:38:06.988Z,3.20
2023-01-17T16:40:45.886Z,4.00
2023-01-17T16:43:18.231Z,3.77
2023-01-17T16:45:50.541Z,3.70
2023-01-17T16:48:19.312Z,3.60
2023-01-17T16:50:50.540Z,2.80
2023-01-17T16:53:23.332Z,3.23
2023-01-17T16:55:52.332Z,3.67
2023-01-17T16:58:20.616Z,4.50
2023-01-17T17:00:47.704Z,3.80
2023-01-17T17:03:18.606Z,4.03
2023-01-17T17:05:47.183Z,4.40
2023-01-17T17:08:15.594Z,4.40
2023-01-17T17:10:42.400Z,4.57
2023-01-17T17:13:09.074Z,4.50
2023-01-17T17:15:36.180Z,4.50
2023-01-17T17:18:03.037Z,3.53
2023-01-17T17:20:29.975Z,3.77
2023-01-17T17:22:56.684Z,4.20
2023-01-17T17:25:24.559Z,4.67
2023-01-17T17:27:51.409Z,4.80
2023-01-17T17:30:18.535Z,5.23
2023-01-17T17:32:46.764Z,4.70
2023-01-17T17:35:13.789Z,5.10
2023-01-17T17:37:40.890Z,5.10
2023-01-17T17:40:08.216Z,6.00
2023-01-17T17:42:35.100Z,5.73
2023-01-17T17:45:01.846Z,5.50
2023-01-17T17:47:30.702Z,5.37
2023-01-17T17:49:57.423Z,6.10
2023-01-17T17:52:24.249Z,6.67
2023-01-17T17:54:50.850Z,5.70
2023-01-17T17:57:17.938Z,6.73
2023-01-17T17:59:44.565Z,5.80
2023-01-17T18:02:11.883Z,6.40
2023-01-17T18:04:39.164Z,6.27
2023-01-17T18:07:06.058Z,7.83
2023-01-17T18:09:32.789Z,9.20
2023-01-17T18:12:00.762Z,9.23
2023-01-17T18:14:27.388Z,8.07
2023-01-17T18:16:54.180Z,7.20
2023-01-17T18:19:23.471Z,9.03
2023-01-17T18:21:51.458Z,9.37
2023-01-17T18:24:20.231Z,8.13
2023-01-17T18:26:57.734Z,10.53
2023-01-17T18:29:25.328Z,11.83
2023-01-17T18:31:52.867Z,10.87
2023-01-17T18:34:27.200Z,10.60
2023-01-17T18:36:55.420Z,9.53
2023-01-17T18:39:25.356Z,10.50
2023-01-17T18:41:52.560Z,9.93
2023-01-17T18:44:22.649Z,10.00
2023-01-17T18:46:50.963Z,11.13
2023-01-17T18:49:19.460Z,11.00
2023-01-17T18:51:50.413Z,13.43
2023-01-17T18:54:17.795Z,13.10
2023-01-17T18:56:47.046Z,13.80
2023-01-17T18:59:14.679Z,11.33
2023-01-17T19:01:43.879Z,14.57
2023-01-17T19:04:13.057Z,12.70
2023-01-17T19:06:42.321Z,12.13
2023-01-17T19:09:11.150Z,12.30
2023-01-17T19:11:38.106Z,11.40
2023-01-17T19:14:05.875Z,11.13
2023-01-17T19:16:39.552Z,12.63
2023-01-17T19:19:09.571Z,11.20
2023-01-17T19:21:36.654Z,11.13
2023-01-17T19:24:03.766Z,11.43
2023-01-17T19:26:30.717Z,11.43
2023-01-17T19:28:58.984Z,11.50
2023-01-17T19:31:30.211Z,11.70
2023-01-17T19:33:58.575Z,11.83
2023-01-17T19:36:27.716Z,11.90
2023-01-17T19:39:04.093Z,11.30
2023-01-17T19:41:31.748Z,10.77
2023-01-17T19:44:04.484Z,10.73
2023-01-17T19:46:31.596Z,12.00
2023-01-17T19:48:58.465Z,11.27
2023-01-17T19:51:26.860Z,11.87
2023-01-17T19:53:54.423Z,10.93
2023-01-17T19:56:24.548Z,11.13
2023-01-17T19:58:52.350Z,10.53
2023-01-17T20:01:22.147Z,10.73
2023-01-17T20:03:50.177Z,10.10
2023-01-17T20:06:25.214Z,10.17
2023-01-17T20:08:52.103Z,10.10
2023-01-17T20:11:21.604Z,10.40
2023-01-17T20:13:50.891Z,10.93
2023-01-17T20:16:18.224Z,11.63
2023-01-17T20:18:45.761Z,11.63
2023-01-17T20:21:21.504Z,12.67
2023-01-17T20:23:49.065Z,11.33
2023-01-17T20:26:18.181Z,11.07
2023-01-17T20:28:46.414Z,11.13
2023-01-17T20:31:16.196Z,11.90
2023-01-17T20:33:44.397Z,10.70
2023-01-17T20:36:17.300Z,11.33
2023-01-17T20:38:44.730Z,11.80
2023-01-17T20:41:15.561Z,11.93
2023-01-17T20:43:43.533Z,10.93
2023-01-17T20:46:10.712Z,12.87
2023-01-17T20:48:42.409Z,14.40
2023-01-17T20:51:10.697Z,15.23
2023-01-17T20:53:39.177Z,19.50
2023-01-17T20:56:08.178Z,15.77
2023-01-17T20:58:35.235Z,13.63
2023-01-17T21:01:02.414Z,13.13
2023-01-17T21:03:29.804Z,13.07
2023-01-17T21:06:10.099Z,12.47
2023-01-17T21:08:38.939Z,12.73
2023-01-17T21:11:07.223Z,12.13
2023-01-17T21:13:34.363Z,18.90
2023-01-17T21:16:02.103Z,16.00
2023-01-17T21:18:31.933Z,15.50
2023-01-17T21:21:07.340Z,13.07
2023-01-17T21:23:35.672Z,13.47
2023-01-17T21:26:02.617Z,12.53
2023-01-17T21:28:31.503Z,12.60
2023-01-17T21:30:58.857Z,13.67
2023-01-17T21:33:29.454Z,12.70
2023-01-17T21:36:08.713Z,12.83
2023-01-17T21:38:35.323Z,12.40
2023-01-17T21:41:02.285Z,13.50
2023-01-17T21:43:29.853Z,13.77
2023-01-17T21:45:57.707Z,12.93
2023-01-17T21:48:24.353Z,11.77
2023-01-17T21:50:52.877Z,13.50
2023-01-17T21:53:19.443Z,14.00
2023-01-17T21:56:04.433Z,13.43
2023-01-17T21:58:46.365Z,13.93
2023-01-17T22:01:18.351Z,12.27
2023-01-17T22:03:57.133Z,13.30
2023-01-17T22:06:26.287Z,13.57
2023-01-17T22:08:53.127Z,13.07
2023-01-17T22:11:22.776Z,13.53
2023-01-17T22:13:49.551Z,12.80
2023-01-17T22:16:19.382Z,12.80
2023-01-17T22:18:46.760Z,12.90
2023-01-17T22:21:19.660Z,13.67
2023-01-17T22:23:51.720Z,13.00
2023-01-17T22:26:19.672Z,13.87
2023-01-17T22:28:46.368Z,13.00
2023-01-17T22:31:22.922Z,13.97
2023-01-17T22:34:02.408Z,14.87
2023-01-17T22:36:30.667Z,18.57
2023-01-17T22:38:57.521Z,19.60
2023-01-17T22:41:27.900Z,17.17
2023-01-17T22:43:57.706Z,15.53
2023-01-17T22:46:27.381Z,13.60
2023-01-17T22:48:54.966Z,12.53
2023-01-17T22:51:23.017Z,13.20
2023-01-17T22:53:52.124Z,12.63
2023-01-17T22:56:24.037Z,13.43
2023-01-17T22:58:50.942Z,12.07
2023-01-17T23:01:23.239Z,18.27
2023-01-17T23:03:58.070Z,21.27
2023-01-17T23:06:30.492Z,28.33
2023-01-17T23:08:59.537Z,22.53
2023-01-17T23:11:39.838Z,17.60
2023-01-17T23:14:18.500Z,14.13
2023-01-17T23:17:06.626Z,12.33
2023-01-17T23:19:40.505Z,12.37
2023-01-17T23:22:27.112Z,12.70
2023-01-17T23:25:05.813Z,13.37
2023-01-17T23:28:01.968Z,11.73
2023-01-17T23:30:36.256Z,12.27
2023-01-17T23:33:07.874Z,12.40
2023-01-17T23:35:41.466Z,13.27
2023-01-17T23:38:30.637Z,14.00
2023-01-17T23:41:26.608Z,13.77
2023-01-17T23:43:57.956Z,13.20
2023-01-17T23:46:25.746Z,13.07
2023-01-17T23:48:52.664Z,12.50
2023-01-17T23:51:19.511Z,13.07
2023-01-17T23:53:46.023Z,12.53
2023-01-17T23:56:19.587Z,13.23
2023-01-17T23:58:46.296Z,13.70
